Time;durP1;ratioP1;P1;durP2;ratioP2;P2;SDS_P1;SDS_P2;PMS_P1;PMS_P2;Temp;Humidity;BMP_temperature;BMP_pressure;BME280_temperature;BME280_humidity;BME280_pressure;Samples;Min_cycle;Max_cycle;Signal;HPM_P1;HPM_P2
2021/12/20 00:02:03;;;;;;;69.37;49.42;;;;;;;;;;143737;604;46021;-77
2021/12/20 00:04:29;;;;;;;65.55;43.95;;;;;;;;;;143738;602;46020;-77
2021/12/20 00:06:56;;;;;;;65.62;40.30;;;;;;;;;;143734;580;47019;-77
2021/12/20 00:09:23;;;;;;;74.60;49.95;;;;;;;;;;143734;603;47021;-76
2021/12/20 00:11:51;;;;;;;66.75;45.22;;;;;;;;;;143738;606;46012;-77
2021/12/20 00:14:20;;;;;;;77.47;51.08;;;;;;;;;;143738;572;46020;-77
2021/12/20 00:16:50;;;;;;;83.60;53.55;;;;;;;;;;143738;564;46018;-77
2021/12/20 00:19:19;;;;;;;76.70;53.08;;;;;;;;;;143738;585;46020;-77
2021/12/20 00:21:54;;;;;;;88.30;55.97;;;;;;;;;;143736;569;46012;-77
2021/12/20 00:24:27;;;;;;;73.45;47.25;;;;;;;;;;143740;581;46021;-76
2021/12/20 00:27:11;;;;;;;69.05;46.10;;;;;;;;;;143735;592;46012;-77
2021/12/20 00:29:54;;;;;;;65.68;44.28;;;;;;;;;;143734;570;46020;-77
2021/12/20 00:32:21;;;;;;;66.97;44.17;;;;;;;;;;143740;639;45021;-77
2021/12/20 00:34:56;;;;;;;68.32;46.20;;;;;;;;;;143735;564;47020;-78
2021/12/20 00:40:21;;;;;;;75.35;49.28;;;;;;;;;;143739;690;46020;-78
2021/12/20 00:42:53;;;;;;;79.43;49.47;;;;;;;;;;143736;600;46012;-77
2021/12/20 00:45:24;;;;;;;73.62;45.60;;;;;;;;;;143737;644;46012;-78
2021/12/20 00:47:50;;;;;;;81.72;49.05;;;;;;;;;;143738;648;46018;-78
2021/12/20 00:50:19;;;;;;;80.87;54.63;;;;;;;;;;143738;582;46022;-78
2021/12/20 00:52:48;;;;;;;81.53;51.75;;;;;;;;;;143733;633;46047;-77
2021/12/20 00:55:16;;;;;;;73.12;47.83;;;;;;;;;;143738;657;46021;-78
2021/12/20 00:57:44;;;;;;;68.87;43.97;;;;;;;;;;143737;567;46012;-77
2021/12/20 01:00:12;;;;;;;65.87;42.05;;;;;;;;;;143736;595;47022;-78
2021/12/20 01:02:39;;;;;;;51.40;34.17;;;;;;;;;;143737;614;46012;-77
2021/12/20 01:05:07;;;;;;;49.85;31.55;;;;;;;;;;143736;573;47020;-76
2021/12/20 01:07:33;;;;;;;48.45;30.15;;;;;;;;;;143738;590;46012;-76
2021/12/20 01:10:03;;;;;;;43.92;29.20;;;;;;;;;;143738;589;47023;-77
2021/12/20 01:12:40;;;;;;;48.83;30.35;;;;;;;;;;143734;574;46914;-78
2021/12/20 01:15:09;;;;;;;42.90;27.45;;;;;;;;;;143738;637;47021;-78
2021/12/20 01:17:38;;;;;;;61.40;34.33;;;;;;;;;;143740;619;46036;-76
2021/12/20 01:20:07;;;;;;;65.72;37.63;;;;;;;;;;143738;576;46022;-77
2021/12/20 01:22:34;;;;;;;79.05;42.40;;;;;;;;;;143737;645;46013;-78
2021/12/20 01:25:03;;;;;;;64.53;37.72;;;;;;;;;;143732;575;47020;-77
2021/12/20 01:27:29;;;;;;;72.40;40.78;;;;;;;;;;143738;582;46018;-77
2021/12/20 01:29:56;;;;;;;70.30;40.00;;;;;;;;;;143736;609;46022;-77
2021/12/20 01:32:23;;;;;;;62.78;38.42;;;;;;;;;;143737;593;47020;-78
2021/12/20 01:34:50;;;;;;;61.95;37.10;;;;;;;;;;143737;577;47020;-77
2021/12/20 01:37:17;;;;;;;44.45;28.02;;;;;;;;;;143738;579;46013;-76
2021/12/20 01:39:43;;;;;;;41.90;27.05;;;;;;;;;;143738;569;46048;-78
2021/12/20 01:42:15;;;;;;;45.90;26.45;;;;;;;;;;143736;661;46012;-77
2021/12/20 01:44:42;;;;;;;40.88;26.60;;;;;;;;;;143740;592;46021;-76
2021/12/20 01:47:10;;;;;;;35.92;21.95;;;;;;;;;;143736;623;46012;-77
2021/12/20 01:49:45;;;;;;;33.60;20.73;;;;;;;;;;143736;589;47022;-77
2021/12/20 01:52:14;;;;;;;37.50;24.00;;;;;;;;;;143737;577;46012;-77
2021/12/20 01:54:41;;;;;;;33.95;21.27;;;;;;;;;;143738;579;47020;-77
2021/12/20 01:57:08;;;;;;;32.95;20.33;;;;;;;;;;143739;569;46020;-77
2021/12/20 01:59:42;;;;;;;29.73;18.02;;;;;;;;;;143738;578;46021;-77
2021/12/20 02:02:13;;;;;;;33.88;18.67;;;;;;;;;;143737;564;46012;-79
2021/12/20 02:04:47;;;;;;;26.58;16.45;;;;;;;;;;143740;591;46020;-77
2021/12/20 02:07:33;;;;;;;31.35;18.45;;;;;;;;;;143738;580;46020;-76
2021/12/20 02:10:01;;;;;;;30.62;17.70;;;;;;;;;;143739;591;47023;-78
2021/12/20 02:12:27;;;;;;;27.42;17.25;;;;;;;;;;143738;604;46012;-77
2021/12/20 02:14:54;;;;;;;31.12;19.48;;;;;;;;;;143736;581;47021;-77
2021/12/20 02:17:23;;;;;;;28.10;17.48;;;;;;;;;;143738;585;46012;-76
2021/12/20 02:19:50;;;;;;;32.60;17.40;;;;;;;;;;143740;569;46022;-77
2021/12/20 02:22:18;;;;;;;28.05;17.95;;;;;;;;;;143739;613;46012;-77
2021/12/20 02:24:45;;;;;;;30.88;16.80;;;;;;;;;;143739;571;46020;-77
2021/12/20 02:27:12;;;;;;;31.42;17.40;;;;;;;;;;143738;598;46012;-78
2021/12/20 02:30:01;;;;;;;31.35;18.37;;;;;;;;;;143737;590;46020;-77
2021/12/20 02:38:18;;;;;;;30.67;16.77;;;;;;;;;;143741;593;46021;-77
2021/12/20 02:40:46;;;;;;;24.83;16.33;;;;;;;;;;143736;564;47022;-77
2021/12/20 02:43:16;;;;;;;33.15;16.05;;;;;;;;;;143740;577;46020;-78
2021/12/20 02:45:47;;;;;;;23.87;16.27;;;;;;;;;;143740;593;46021;-78
2021/12/20 02:48:13;;;;;;;27.05;15.68;;;;;;;;;;143739;582;46012;-78
2021/12/20 02:50:40;;;;;;;26.92;16.67;;;;;;;;;;143739;616;47022;-79
2021/12/20 02:53:07;;;;;;;26.98;15.25;;;;;;;;;;143737;569;46020;-76
2021/12/20 02:55:33;;;;;;;27.02;16.05;;;;;;;;;;143740;599;46020;-77
2021/12/20 02:58:00;;;;;;;27.02;15.10;;;;;;;;;;143739;583;46019;-77
2021/12/20 03:00:27;;;;;;;23.90;13.98;;;;;;;;;;143740;605;46021;-78
2021/12/20 03:02:53;;;;;;;23.65;14.95;;;;;;;;;;143738;575;46012;-78
2021/12/20 03:05:20;;;;;;;23.50;14.35;;;;;;;;;;143738;585;46044;-78
2021/12/20 03:07:51;;;;;;;21.48;13.43;;;;;;;;;;143737;573;46014;-77
2021/12/20 03:10:21;;;;;;;22.77;12.40;;;;;;;;;;143739;632;46022;-78
2021/12/20 03:12:49;;;;;;;28.05;15.57;;;;;;;;;;143735;648;46012;-78
2021/12/20 03:15:21;;;;;;;23.58;13.82;;;;;;;;;;143739;564;47020;-77
2021/12/20 03:17:48;;;;;;;17.40;10.65;;;;;;;;;;143738;573;46025;-77
2021/12/20 03:20:15;;;;;;;16.23;9.40;;;;;;;;;;143740;581;46020;-77
2021/12/20 03:22:43;;;;;;;15.63;8.95;;;;;;;;;;143737;602;46013;-78
2021/12/20 03:25:10;;;;;;;25.80;14.65;;;;;;;;;;143738;629;47020;-77
2021/12/20 03:27:36;;;;;;;20.02;12.75;;;;;;;;;;143738;606;47020;-77
2021/12/20 03:30:06;;;;;;;34.65;22.87;;;;;;;;;;143736;588;47022;-77
2021/12/20 03:32:33;;;;;;;37.28;23.48;;;;;;;;;;143737;621;46012;-78
2021/12/20 03:34:59;;;;;;;41.15;25.85;;;;;;;;;;143737;565;47012;-77
2021/12/20 03:37:26;;;;;;;36.10;23.15;;;;;;;;;;143738;581;46012;-77
2021/12/20 03:39:52;;;;;;;30.70;16.85;;;;;;;;;;143741;608;46022;-78
2021/12/20 03:42:19;;;;;;;27.98;16.30;;;;;;;;;;143736;576;46013;-77
2021/12/20 03:44:49;;;;;;;33.78;18.85;;;;;;;;;;143735;586;46020;-78
2021/12/20 03:47:16;;;;;;;28.83;17.70;;;;;;;;;;143739;574;46012;-78
2021/12/20 03:49:42;;;;;;;39.10;22.33;;;;;;;;;;143738;601;46020;-77
2021/12/20 03:52:10;;;;;;;28.62;20.65;;;;;;;;;;143737;627;46013;-78
2021/12/20 03:54:37;;;;;;;32.55;21.52;;;;;;;;;;143737;582;46020;-77
2021/12/20 03:57:04;;;;;;;39.33;23.55;;;;;;;;;;143742;598;46020;-77
2021/12/20 03:59:34;;;;;;;37.30;24.40;;;;;;;;;;143738;580;46013;-77
2021/12/20 04:02:01;;;;;;;25.73;17.80;;;;;;;;;;143735;585;46012;-78
2021/12/20 04:04:27;;;;;;;25.67;16.65;;;;;;;;;;143739;597;47020;-77
2021/12/20 04:06:54;;;;;;;32.42;17.92;;;;;;;;;;143738;613;46013;-77
2021/12/20 04:09:21;;;;;;;35.20;17.98;;;;;;;;;;143740;589;46022;-79
2021/12/20 04:11:47;;;;;;;47.40;31.08;;;;;;;;;;143738;571;46012;-77
2021/12/20 04:14:15;;;;;;;42.47;26.75;;;;;;;;;;143740;668;46020;-78
2021/12/20 04:16:42;;;;;;;50.33;26.87;;;;;;;;;;143738;579;46020;-78
2021/12/20 04:19:08;;;;;;;47.80;29.25;;;;;;;;;;143738;594;47022;-79
2021/12/20 04:21:35;;;;;;;31.80;20.33;;;;;;;;;;143737;608;47020;-78
2021/12/20 04:24:02;;;;;;;40.80;25.67;;;;;;;;;;143737;579;46026;-78
2021/12/20 04:26:29;;;;;;;36.22;26.27;;;;;;;;;;143739;589;46018;-78
2021/12/20 04:28:56;;;;;;;40.60;25.48;;;;;;;;;;143741;702;47022;-77
2021/12/20 04:31:22;;;;;;;43.80;29.73;;;;;;;;;;143739;675;46020;-78
2021/12/20 04:33:49;;;;;;;33.53;24.27;;;;;;;;;;143739;714;46047;-78
2021/12/20 04:36:16;;;;;;;31.90;17.25;;;;;;;;;;143742;565;46012;-78
2021/12/20 04:38:43;;;;;;;30.40;18.12;;;;;;;;;;143738;578;46020;-78
2021/12/20 04:41:10;;;;;;;30.52;13.52;;;;;;;;;;143739;696;46012;-77
2021/12/20 04:43:36;;;;;;;21.80;13.30;;;;;;;;;;143738;592;47021;-77
2021/12/20 04:46:03;;;;;;;17.30;9.73;;;;;;;;;;143739;591;46020;-78
2021/12/20 04:48:30;;;;;;;25.35;13.60;;;;;;;;;;143739;564;47022;-79
2021/12/20 04:51:00;;;;;;;25.92;13.30;;;;;;;;;;143736;569;46915;-77
2021/12/20 04:53:26;;;;;;;24.12;12.45;;;;;;;;;;143736;602;46014;-77
2021/12/20 04:55:53;;;;;;;21.00;13.85;;;;;;;;;;143733;670;47018;-77
2021/12/20 04:58:20;;;;;;;28.33;17.60;;;;;;;;;;143739;569;46049;-78
2021/12/20 05:00:47;;;;;;;48.05;24.83;;;;;;;;;;143736;681;46012;-78
2021/12/20 05:03:13;;;;;;;25.42;16.85;;;;;;;;;;143737;576;46012;-77
2021/12/20 05:05:40;;;;;;;38.20;19.73;;;;;;;;;;143740;593;46013;-77
2021/12/20 05:08:07;;;;;;;33.15;19.60;;;;;;;;;;143736;674;47020;-77
2021/12/20 05:10:38;;;;;;;32.55;19.87;;;;;;;;;;143738;583;46012;-77
2021/12/20 05:13:08;;;;;;;30.85;19.75;;;;;;;;;;143739;670;46021;-77
2021/12/20 05:15:37;;;;;;;30.50;20.52;;;;;;;;;;143739;642;46018;-78
2021/12/20 05:18:06;;;;;;;31.62;19.65;;;;;;;;;;143735;597;46020;-78
2021/12/20 05:20:33;;;;;;;36.05;19.58;;;;;;;;;;143737;690;46020;-76
2021/12/20 05:23:00;;;;;;;37.58;20.23;;;;;;;;;;143739;646;47020;-77
2021/12/20 05:25:27;;;;;;;28.10;18.67;;;;;;;;;;143738;564;46012;-76
2021/12/20 05:27:54;;;;;;;30.08;18.15;;;;;;;;;;143740;591;46014;-78
2021/12/20 05:30:21;;;;;;;30.02;16.37;;;;;;;;;;143739;607;46020;-77
2021/12/20 05:32:48;;;;;;;25.98;18.08;;;;;;;;;;143738;574;46040;-76
2021/12/20 05:35:16;;;;;;;32.85;17.25;;;;;;;;;;143740;583;46012;-76
2021/12/20 05:37:43;;;;;;;31.65;18.67;;;;;;;;;;143739;623;46021;-77
2021/12/20 05:40:11;;;;;;;33.42;21.25;;;;;;;;;;143737;630;46012;-76
2021/12/20 05:42:38;;;;;;;34.00;21.50;;;;;;;;;;143739;668;46021;-76
2021/12/20 05:45:11;;;;;;;33.53;19.15;;;;;;;;;;143741;611;47018;-77
2021/12/20 05:47:38;;;;;;;40.05;25.85;;;;;;;;;;143740;572;46012;-77
2021/12/20 05:50:07;;;;;;;27.75;17.42;;;;;;;;;;143736;570;46021;-77
2021/12/20 05:52:38;;;;;;;31.87;19.08;;;;;;;;;;143738;633;46020;-77
2021/12/20 05:55:07;;;;;;;37.15;22.25;;;;;;;;;;143740;576;46020;-77
2021/12/20 05:57:35;;;;;;;39.67;19.70;;;;;;;;;;143735;584;47022;-76
2021/12/20 06:00:03;;;;;;;46.45;23.00;;;;;;;;;;143737;604;47020;-75
2021/12/20 06:02:32;;;;;;;46.35;23.60;;;;;;;;;;143740;564;46020;-77
2021/12/20 06:04:59;;;;;;;41.60;23.92;;;;;;;;;;143738;609;46012;-76
2021/12/20 06:07:25;;;;;;;43.45;25.23;;;;;;;;;;143738;626;47020;-75
2021/12/20 06:09:52;;;;;;;44.78;26.08;;;;;;;;;;143740;585;46038;-76
2021/12/20 06:12:19;;;;;;;44.65;29.55;;;;;;;;;;143740;632;46021;-75
2021/12/20 06:14:46;;;;;;;46.80;30.12;;;;;;;;;;143739;682;46012;-76
2021/12/20 06:17:13;;;;;;;43.53;27.02;;;;;;;;;;143738;629;47022;-76
2021/12/20 06:19:40;;;;;;;41.00;23.48;;;;;;;;;;143736;641;46013;-77
2021/12/20 06:22:10;;;;;;;34.67;23.98;;;;;;;;;;143738;627;47021;-75
2021/12/20 06:24:38;;;;;;;38.55;26.02;;;;;;;;;;143735;629;46018;-76
2021/12/20 06:27:05;;;;;;;37.35;26.25;;;;;;;;;;143740;589;46022;-76
2021/12/20 06:29:31;;;;;;;40.90;29.15;;;;;;;;;;143738;666;46020;-76
2021/12/20 06:31:58;;;;;;;43.22;25.30;;;;;;;;;;143738;566;47020;-76
2021/12/20 06:34:25;;;;;;;57.85;30.65;;;;;;;;;;143741;566;46020;-76
2021/12/20 06:36:51;;;;;;;50.90;28.83;;;;;;;;;;143737;606;46012;-76
2021/12/20 06:39:18;;;;;;;51.88;27.50;;;;;;;;;;143735;597;46012;-75
2021/12/20 06:41:46;;;;;;;30.42;14.48;;;;;;;;;;143738;608;46021;-77
2021/12/20 06:44:13;;;;;;;22.45;13.05;;;;;;;;;;143736;603;46012;-77
2021/12/20 06:46:42;;;;;;;21.83;12.80;;;;;;;;;;143735;655;46047;-76
2021/12/20 06:49:10;;;;;;;32.45;15.73;;;;;;;;;;143734;706;46021;-77
2021/12/20 06:51:41;;;;;;;37.65;22.77;;;;;;;;;;143736;584;46041;-76
2021/12/20 06:54:11;;;;;;;43.72;23.12;;;;;;;;;;143738;622;46010;-77
2021/12/20 06:56:39;;;;;;;46.53;28.95;;;;;;;;;;143740;570;46022;-77
2021/12/20 06:59:08;;;;;;;46.75;29.15;;;;;;;;;;143736;590;46020;-77
2021/12/20 07:01:34;;;;;;;51.28;29.67;;;;;;;;;;143737;581;46020;-77
2021/12/20 07:04:01;;;;;;;51.55;32.08;;;;;;;;;;143737;605;46012;-78
2021/12/20 07:06:30;;;;;;;58.55;35.10;;;;;;;;;;143736;599;47020;-78
2021/12/20 07:08:57;;;;;;;44.15;28.05;;;;;;;;;;143735;608;46012;-76
2021/12/20 07:11:24;;;;;;;29.77;18.05;;;;;;;;;;143735;594;46020;-75
2021/12/20 07:13:54;;;;;;;33.78;19.80;;;;;;;;;;143738;623;46039;-77
2021/12/20 07:16:21;;;;;;;30.35;17.40;;;;;;;;;;143738;570;46022;-76
2021/12/20 07:18:49;;;;;;;24.85;16.23;;;;;;;;;;143735;566;46012;-78
2021/12/20 07:21:17;;;;;;;29.87;17.05;;;;;;;;;;143738;564;47021;-78
2021/12/20 07:23:44;;;;;;;23.27;15.15;;;;;;;;;;143737;594;46012;-78
2021/12/20 07:26:13;;;;;;;28.95;16.77;;;;;;;;;;143738;584;47022;-77
2021/12/20 07:28:41;;;;;;;21.35;15.63;;;;;;;;;;143736;618;46012;-76
2021/12/20 07:31:13;;;;;;;25.37;18.50;;;;;;;;;;143735;564;46038;-75
2021/12/20 07:33:41;;;;;;;30.65;19.65;;;;;;;;;;143739;577;46020;-77
2021/12/20 07:36:15;;;;;;;26.85;18.33;;;;;;;;;;143735;589;47023;-77
2021/12/20 07:38:48;;;;;;;19.75;13.93;;;;;;;;;;143740;583;46022;-77
2021/12/20 07:41:18;;;;;;;18.10;10.70;;;;;;;;;;143736;569;47021;-78
2021/12/20 07:43:45;;;;;;;27.90;17.45;;;;;;;;;;143735;582;46012;-77
2021/12/20 07:46:12;;;;;;;14.73;8.77;;;;;;;;;;143737;584;47022;-77
2021/12/20 07:48:38;;;;;;;23.48;10.13;;;;;;;;;;143737;583;47021;-77
2021/12/20 07:51:05;;;;;;;22.27;11.60;;;;;;;;;;143738;581;46021;-78
2021/12/20 07:53:32;;;;;;;21.85;12.57;;;;;;;;;;143739;598;46012;-77
2021/12/20 07:55:59;;;;;;;19.50;13.10;;;;;;;;;;143736;594;47020;-77
2021/12/20 07:58:26;;;;;;;20.55;13.65;;;;;;;;;;143737;695;46013;-79
2021/12/20 08:00:52;;;;;;;23.17;13.68;;;;;;;;;;143739;603;47020;-79
2021/12/20 08:03:19;;;;;;;22.65;13.00;;;;;;;;;;143737;566;46012;-78
2021/12/20 08:05:46;;;;;;;21.50;13.10;;;;;;;;;;143737;578;46021;-77
2021/12/20 08:08:13;;;;;;;23.75;13.52;;;;;;;;;;143735;607;46012;-77
2021/12/20 08:10:40;;;;;;;28.75;15.55;;;;;;;;;;143735;579;46012;-77
2021/12/20 08:13:07;;;;;;;22.80;14.13;;;;;;;;;;143734;572;46021;-78
2021/12/20 08:15:33;;;;;;;33.47;14.93;;;;;;;;;;143736;582;47022;-78
2021/12/20 08:18:00;;;;;;;27.50;14.48;;;;;;;;;;143735;588;46012;-77
2021/12/20 08:20:27;;;;;;;22.67;12.60;;;;;;;;;;143737;575;47021;-78
2021/12/20 08:22:54;;;;;;;20.30;11.90;;;;;;;;;;143736;666;46012;-78
2021/12/20 08:25:20;;;;;;;23.08;12.25;;;;;;;;;;143735;760;47022;-78
2021/12/20 08:27:48;;;;;;;20.80;11.77;;;;;;;;;;143735;569;46012;-76
2021/12/20 08:30:15;;;;;;;19.33;13.02;;;;;;;;;;143738;587;46020;-77
2021/12/20 08:32:42;;;;;;;27.48;14.48;;;;;;;;;;143737;681;46012;-78
2021/12/20 08:35:10;;;;;;;27.58;14.20;;;;;;;;;;143738;648;46021;-78
2021/12/20 08:37:37;;;;;;;29.98;14.98;;;;;;;;;;143736;570;46012;-78
2021/12/20 08:40:05;;;;;;;24.35;14.20;;;;;;;;;;143736;593;46015;-76
2021/12/20 08:42:32;;;;;;;24.40;14.18;;;;;;;;;;143731;588;48021;-78
2021/12/20 08:44:58;;;;;;;25.27;14.63;;;;;;;;;;143735;566;47020;-75
2021/12/20 08:47:25;;;;;;;34.72;16.20;;;;;;;;;;143736;584;47020;-76
2021/12/20 08:49:52;;;;;;;26.95;16.02;;;;;;;;;;143735;618;46023;-76
2021/12/20 08:52:18;;;;;;;34.97;16.17;;;;;;;;;;143737;598;46044;-76
2021/12/20 08:54:45;;;;;;;30.80;16.58;;;;;;;;;;143732;576;46014;-76
2021/12/20 08:57:12;;;;;;;29.10;18.40;;;;;;;;;;143737;617;46021;-77
2021/12/20 08:59:39;;;;;;;28.05;17.05;;;;;;;;;;143737;603;46020;-76
2021/12/20 09:02:07;;;;;;;30.62;13.95;;;;;;;;;;143736;585;49020;-76
2021/12/20 09:04:37;;;;;;;24.05;12.70;;;;;;;;;;143736;636;47022;-77
2021/12/20 09:07:14;;;;;;;23.35;11.55;;;;;;;;;;143735;581;46012;-77
2021/12/20 09:09:46;;;;;;;26.02;10.90;;;;;;;;;;143739;564;46020;-75
2021/12/20 09:12:18;;;;;;;22.25;10.63;;;;;;;;;;143738;575;46018;-75
2021/12/20 09:14:45;;;;;;;17.35;11.12;;;;;;;;;;143735;600;46023;-77
2021/12/20 09:17:12;;;;;;;17.27;10.27;;;;;;;;;;143736;579;46020;-77
2021/12/20 09:19:39;;;;;;;16.58;9.90;;;;;;;;;;143737;608;46021;-77
2021/12/20 09:22:11;;;;;;;16.75;10.82;;;;;;;;;;143735;573;46012;-77
2021/12/20 09:24:39;;;;;;;16.47;12.20;;;;;;;;;;143735;638;47022;-76
2021/12/20 09:27:07;;;;;;;20.30;12.20;;;;;;;;;;143735;596;46012;-76
2021/12/20 09:29:33;;;;;;;17.70;10.30;;;;;;;;;;143738;592;46012;-77
2021/12/20 09:32:01;;;;;;;19.05;11.45;;;;;;;;;;143738;595;46018;-76
2021/12/20 09:34:28;;;;;;;17.60;10.93;;;;;;;;;;143738;580;46021;-77
2021/12/20 09:36:55;;;;;;;23.70;10.45;;;;;;;;;;143731;570;46012;-77
2021/12/20 09:39:23;;;;;;;17.60;10.23;;;;;;;;;;143735;597;46020;-76
2021/12/20 09:44:36;;;;;;;17.00;9.93;;;;;;;;;;143737;571;47020;-76
2021/12/20 09:47:04;;;;;;;16.87;10.13;;;;;;;;;;143735;601;46012;-76
2021/12/20 09:49:34;;;;;;;23.95;12.70;;;;;;;;;;143736;597;47021;-78
2021/12/20 09:52:01;;;;;;;15.32;10.70;;;;;;;;;;143737;601;47018;-76
2021/12/20 09:54:31;;;;;;;19.42;12.40;;;;;;;;;;143738;664;47022;-77
2021/12/20 09:56:59;;;;;;;19.65;13.38;;;;;;;;;;143731;612;46013;-76
2021/12/20 09:59:29;;;;;;;23.48;12.75;;;;;;;;;;143735;586;47020;-76
2021/12/20 10:01:58;;;;;;;17.55;11.68;;;;;;;;;;143739;594;46020;-79
2021/12/20 10:04:25;;;;;;;15.13;10.35;;;;;;;;;;143734;578;47023;-75
2021/12/20 10:06:59;;;;;;;18.70;11.00;;;;;;;;;;143736;566;46012;-75
2021/12/20 10:09:27;;;;;;;;;;;;;;;;;;143742;982;46020;-76
2021/12/20 10:12:24;;;;;;;16.75;11.30;;;;;;;;;;143744;636;46018;-76
2021/12/20 10:15:14;;;;;;;16.55;10.32;;;;;;;;;;143738;595;47022;-77
2021/12/20 10:18:00;;;;;;;12.48;8.65;;;;;;;;;;143735;621;46012;-75
2021/12/20 10:20:30;;;;;;;18.50;9.88;;;;;;;;;;143739;650;46021;-75
2021/12/20 10:23:28;;;;;;;14.77;8.18;;;;;;;;;;143742;569;45020;-76
2021/12/20 10:26:02;;;;;;;17.52;10.35;;;;;;;;;;143744;567;45024;-77
2021/12/20 10:28:37;;;;;;;15.70;9.88;;;;;;;;;;143738;588;47020;-77
2021/12/20 10:31:19;;;;;;;13.23;8.80;;;;;;;;;;143730;656;46014;-76
2021/12/20 10:34:00;;;;;;;12.45;8.07;;;;;;;;;;143736;575;46013;-77
2021/12/20 10:36:28;;;;;;;9.73;5.72;;;;;;;;;;143737;593;46022;-76
2021/12/20 10:38:57;;;;;;;13.10;7.50;;;;;;;;;;143734;569;46012;-78
2021/12/20 10:41:34;;;;;;;12.13;6.18;;;;;;;;;;143733;608;46021;-77
2021/12/20 10:44:18;;;;;;;14.93;6.30;;;;;;;;;;143738;608;46012;-77
2021/12/20 10:46:53;;;;;;;9.02;6.07;;;;;;;;;;143736;577;47020;-76
2021/12/20 10:49:26;;;;;;;9.77;6.10;;;;;;;;;;143735;587;46013;-76
2021/12/20 10:51:54;;;;;;;8.70;4.82;;;;;;;;;;143736;613;46014;-75
2021/12/20 10:54:31;;;;;;;10.05;4.80;;;;;;;;;;143737;587;46012;-75
2021/12/20 10:57:03;;;;;;;10.98;5.35;;;;;;;;;;143738;583;47023;-76
2021/12/20 10:59:33;;;;;;;9.95;6.22;;;;;;;;;;143734;578;46012;-78
2021/12/20 11:05:02;;;;;;;10.18;4.95;;;;;;;;;;143737;564;46012;-76
2021/12/20 11:10:16;;;;;;;9.75;6.78;;;;;;;;;;143737;599;47021;-77
2021/12/20 11:12:43;;;;;;;9.30;5.87;;;;;;;;;;143737;600;47020;-77
2021/12/20 11:15:12;;;;;;;9.02;6.60;;;;;;;;;;143737;566;47020;-77
2021/12/20 11:17:45;;;;;;;11.80;7.25;;;;;;;;;;143738;596;47022;-77
2021/12/20 11:20:22;;;;;;;10.60;5.53;;;;;;;;;;143730;616;46020;-76
2021/12/20 11:22:48;;;;;;;15.45;5.90;;;;;;;;;;143736;593;46020;-76
2021/12/20 11:25:15;;;;;;;8.82;5.60;;;;;;;;;;143736;619;47019;-76
2021/12/20 11:27:46;;;;;;;7.60;5.05;;;;;;;;;;143733;579;46023;-77
2021/12/20 11:30:27;;;;;;;8.40;4.43;;;;;;;;;;143737;672;46020;-78
2021/12/20 11:33:03;;;;;;;12.05;8.48;;;;;;;;;;143734;570;46021;-77
2021/12/20 11:35:30;;;;;;;12.43;7.30;;;;;;;;;;143736;570;46012;-76
2021/12/20 11:37:57;;;;;;;14.57;7.00;;;;;;;;;;143738;609;47022;-77
2021/12/20 11:40:25;;;;;;;11.80;5.28;;;;;;;;;;143734;569;46013;-77
2021/12/20 11:42:52;;;;;;;8.00;5.43;;;;;;;;;;143738;576;46020;-76
2021/12/20 11:45:20;;;;;;;10.30;6.47;;;;;;;;;;143740;703;46020;-77
2021/12/20 11:48:07;;;;;;;9.45;5.68;;;;;;;;;;143737;583;46013;-76
2021/12/20 11:50:36;;;;;;;8.50;6.60;;;;;;;;;;143730;565;46047;-77
2021/12/20 11:53:10;;;;;;;8.05;6.05;;;;;;;;;;143738;592;46020;-76
2021/12/20 11:55:39;;;;;;;6.87;5.60;;;;;;;;;;143738;573;46012;-79
2021/12/20 11:58:20;;;;;;;12.07;6.47;;;;;;;;;;143739;581;46023;-79
2021/12/20 12:00:51;;;;;;;10.40;6.70;;;;;;;;;;143744;569;46012;-78
2021/12/20 12:03:26;;;;;;;9.95;6.12;;;;;;;;;;143743;567;47021;-77
2021/12/20 12:06:03;;;;;;;10.98;6.30;;;;;;;;;;143746;588;46012;-77
2021/12/20 12:08:58;;;;;;;14.07;5.62;;;;;;;;;;143745;639;46012;-77
2021/12/20 12:11:31;;;;;;;6.70;4.82;;;;;;;;;;143744;627;46013;-76
2021/12/20 12:14:18;;;;;;;11.32;4.12;;;;;;;;;;143738;577;46020;-78
2021/12/20 12:17:09;;;;;;;10.10;5.57;;;;;;;;;;143746;582;46019;-77
2021/12/20 12:20:12;;;;;;;4.80;4.03;;;;;;;;;;143742;731;47023;-78
2021/12/20 12:22:43;;;;;;;15.63;8.60;;;;;;;;;;143745;658;46020;-78
2021/12/20 12:25:37;;;;;;;11.15;9.02;;;;;;;;;;143746;593;46020;-77
2021/12/20 12:28:04;;;;;;;13.18;5.60;;;;;;;;;;143745;576;46012;-77
2021/12/20 12:31:22;;;;;;;8.52;5.60;;;;;;;;;;143744;565;46022;-78
2021/12/20 12:34:20;;;;;;;;;;;;;;;;;;;;;
2021/12/20 12:36:48;;;;;;;6.53;4.57;;;;;;;;;;143743;626;46012;-77
2021/12/20 12:39:27;;;;;;;11.43;6.72;;;;;;;;;;143748;576;46019;-77
2021/12/20 12:41:59;;;;;;;7.35;5.07;;;;;;;;;;143739;579;47023;-77
2021/12/20 12:44:31;;;;;;;9.77;3.90;;;;;;;;;;143745;572;46012;-77
2021/12/20 12:47:13;;;;;;;6.95;5.53;;;;;;;;;;143747;680;46019;-76
2021/12/20 12:49:48;;;;;;;9.38;6.05;;;;;;;;;;143746;591;46012;-76
2021/12/20 12:52:34;;;;;;;10.63;6.35;;;;;;;;;;143745;647;47022;-77
2021/12/20 12:55:07;;;;;;;11.25;5.80;;;;;;;;;;143746;594;46021;-77
2021/12/20 12:57:37;;;;;;;8.05;5.37;;;;;;;;;;143749;583;45020;-79
2021/12/20 13:00:26;;;;;;;10.90;5.40;;;;;;;;;;143752;659;45020;-78
2021/12/20 13:03:00;;;;;;;7.95;4.28;;;;;;;;;;143750;611;46021;-78
2021/12/20 13:05:35;;;;;;;;;;;;;;;;;;143744;781;46012;-77
2021/12/20 13:08:03;;;;;;;7.55;4.87;;;;;;;;;;143750;606;46020;-77
2021/12/20 13:10:39;;;;;;;8.82;6.40;;;;;;;;;;143747;581;46018;-77
2021/12/20 13:13:29;;;;;;;8.93;6.62;;;;;;;;;;143747;604;46022;-77
2021/12/20 13:16:02;;;;;;;10.82;7.72;;;;;;;;;;143747;579;45914;-76
2021/12/20 13:18:34;;;;;;;10.93;8.10;;;;;;;;;;143747;588;46021;-78
2021/12/20 13:21:04;;;;;;;9.18;6.82;;;;;;;;;;143746;597;46018;-77
2021/12/20 13:23:46;;;;;;;8.90;6.18;;;;;;;;;;143743;583;47020;-77
2021/12/20 13:26:22;;;;;;;8.13;5.95;;;;;;;;;;143745;579;46013;-78
2021/12/20 13:28:51;;;;;;;9.00;7.07;;;;;;;;;;143746;574;46020;-78
2021/12/20 13:31:25;;;;;;;11.77;6.10;;;;;;;;;;143747;663;46012;-78
2021/12/20 13:33:52;;;;;;;;;;;;;;;;;;143742;981;47023;-76
2021/12/20 13:36:24;;;;;;;11.95;9.07;;;;;;;;;;143748;586;46012;-76
2021/12/20 13:38:54;;;;;;;11.70;8.77;;;;;;;;;;143746;715;47020;-76
2021/12/20 13:41:27;;;;;;;47.33;29.55;;;;;;;;;;143748;591;46018;-77
2021/12/20 13:43:58;;;;;;;46.35;27.35;;;;;;;;;;143747;571;46020;-76
2021/12/20 13:46:30;;;;;;;147.15;82.90;;;;;;;;;;143744;628;46012;-76
2021/12/20 13:49:03;;;;;;;100.05;57.90;;;;;;;;;;143735;603;46021;-77
2021/12/20 13:51:39;;;;;;;127.05;87.68;;;;;;;;;;143742;611;46018;-77
2021/12/20 13:54:29;;;;;;;33.83;23.98;;;;;;;;;;143743;580;47022;-78
2021/12/20 13:57:20;;;;;;;23.52;17.95;;;;;;;;;;143745;566;45021;-77
2021/12/20 14:00:16;;;;;;;20.73;11.73;;;;;;;;;;143738;576;47020;-77
2021/12/20 14:02:47;;;;;;;18.98;11.50;;;;;;;;;;143733;579;47021;-78
2021/12/20 14:05:26;;;;;;;7.85;5.78;;;;;;;;;;143737;612;47020;-77
2021/12/20 14:07:59;;;;;;;17.08;9.27;;;;;;;;;;143737;618;46012;-77
2021/12/20 14:10:34;;;;;;;18.12;11.07;;;;;;;;;;143737;614;47020;-78
2021/12/20 14:13:06;;;;;;;32.45;21.50;;;;;;;;;;143738;599;46044;-78
2021/12/20 14:15:41;;;;;;;24.45;18.48;;;;;;;;;;143739;580;46022;-78
2021/12/20 14:18:19;;;;;;;16.83;9.82;;;;;;;;;;143738;572;46020;-78
2021/12/20 14:21:00;;;;;;;10.07;6.37;;;;;;;;;;143738;583;46020;-78
2021/12/20 14:23:52;;;;;;;24.08;18.05;;;;;;;;;;143737;589;46012;-78
2021/12/20 14:26:37;;;;;;;27.60;20.12;;;;;;;;;;143736;569;47025;-78
2021/12/20 14:29:06;;;;;;;14.55;7.85;;;;;;;;;;143737;566;46012;-77
2021/12/20 14:31:40;;;;;;;8.05;5.30;;;;;;;;;;143740;574;46021;-78
2021/12/20 14:34:33;;;;;;;7.07;4.65;;;;;;;;;;143741;619;46012;-77
2021/12/20 14:37:11;;;;;;;9.63;6.07;;;;;;;;;;143739;577;46020;-78
2021/12/20 14:39:45;;;;;;;9.13;4.93;;;;;;;;;;143739;633;46021;-78
2021/12/20 14:42:19;;;;;;;15.65;10.00;;;;;;;;;;143741;576;46047;-79
2021/12/20 14:44:58;;;;;;;32.03;17.40;;;;;;;;;;143739;583;46020;-78
2021/12/20 14:47:38;;;;;;;31.73;22.48;;;;;;;;;;143740;581;47023;-78
2021/12/20 14:50:24;;;;;;;26.23;15.75;;;;;;;;;;143737;570;46012;-78
2021/12/20 14:52:51;;;;;;;18.52;12.02;;;;;;;;;;143735;573;47020;-75
2021/12/20 14:55:19;;;;;;;17.55;10.43;;;;;;;;;;143740;606;46013;-76
2021/12/20 14:58:02;;;;;;;15.18;9.13;;;;;;;;;;143735;573;46022;-76
2021/12/20 15:00:32;;;;;;;17.37;10.03;;;;;;;;;;143739;564;46012;-75
2021/12/20 15:03:05;;;;;;;25.08;19.50;;;;;;;;;;143735;566;46021;-77